Time;durP1;ratioP1;P1;durP2;ratioP2;P2;SDS_P1;SDS_P2;PMS_P1;PMS_P2;Temp;Humidity;BMP_temperature;BMP_pressure;BME280_temperature;BME280_humidity;BME280_pressure;Samples;Min_cycle;Max_cycle;Signal;HPM_P1;HPM_P2
2022/10/25 04:31:20;;;;;;;;;2.00;1.33;;;;;-147.14;100.00;58812.66;5527886;22;46412;-59
2022/10/25 04:33:49;;;;;;;;;2.00;1.00;;;;;-147.14;100.00;58812.66;5000378;28;45700;-60
2022/10/25 04:36:15;;;;;;;;;2.33;1.00;;;;;-147.14;100.00;58812.66;5001380;28;45345;-60
2022/10/25 04:38:40;;;;;;;;;1.00;1.00;;;;;-147.14;100.00;58812.66;5006230;28;45636;-60
2022/10/25 04:41:05;;;;;;;;;5.67;0.67;;;;;-147.14;100.00;58812.66;4998426;28;67337;-60
2022/10/25 04:43:31;;;;;;;;;1.33;1.00;;;;;-147.14;100.00;58812.66;5002738;28;45575;-60
2022/10/25 04:45:59;;;;;;;;;5.00;1.33;;;;;-147.14;100.00;58812.66;5001785;28;67564;-60
2022/10/25 04:48:25;;;;;;;;;0.00;0.00;;;;;-147.14;100.00;58812.66;5004869;28;45339;-60
2022/10/25 04:50:51;;;;;;;;;1.67;1.00;;;;;-147.14;100.00;58812.66;5001129;28;66200;-60
2022/10/25 04:53:16;;;;;;;;;1.67;1.00;;;;;-147.14;100.00;58812.66;5005911;28;45386;-60
2022/10/25 04:55:42;;;;;;;;;6.00;2.00;;;;;-147.14;100.00;58812.66;4995620;28;75256;-60
2022/10/25 04:58:07;;;;;;;;;2.00;1.67;;;;;-147.14;100.00;58812.66;5001582;28;45456;-60
2022/10/25 05:00:33;;;;;;;;;3.00;2.00;;;;;-147.14;100.00;58812.66;4999363;28;51926;-60
2022/10/25 05:02:58;;;;;;;;;3.00;2.00;;;;;-147.14;100.00;58812.66;5001364;28;45395;-60
2022/10/25 05:05:24;;;;;;;;;3.00;3.00;;;;;-147.14;100.00;58812.66;5000244;28;71288;-60
2022/10/25 05:07:50;;;;;;;;;2.33;1.00;;;;;-147.14;100.00;58812.66;4999836;28;46067;-60
2022/10/25 05:10:16;;;;;;;;;1.67;1.67;;;;;-147.14;100.00;58812.66;5002172;28;67801;-60
2022/10/25 05:12:41;;;;;;;;;3.33;1.00;;;;;-147.14;100.00;58812.66;4999944;28;45902;-60
2022/10/25 05:15:07;;;;;;;;;5.00;2.00;;;;;-147.14;100.00;58812.66;4998312;28;46086;-60
2022/10/25 05:17:32;;;;;;;;;6.33;1.00;;;;;-147.14;100.00;58812.66;4999236;28;45675;-60
2022/10/25 05:19:58;;;;;;;;;2.67;2.33;;;;;-147.14;100.00;58812.66;4997226;28;57586;-60
2022/10/25 05:22:24;;;;;;;;;3.00;3.00;;;;;-147.14;100.00;58812.66;4999687;28;45828;-60
2022/10/25 05:24:49;;;;;;;;;2.67;2.67;;;;;-147.14;100.00;58812.66;4998677;28;46489;-60
2022/10/25 05:27:15;;;;;;;;;1.67;1.67;;;;;-147.14;100.00;58812.66;4995691;28;45400;-60
2022/10/25 05:29:41;;;;;;;;;4.33;2.67;;;;;-147.14;100.00;58812.66;4999387;28;63444;-60
2022/10/25 05:32:06;;;;;;;;;5.00;3.00;;;;;-147.14;100.00;58812.66;4998053;28;61812;-60
2022/10/25 05:34:32;;;;;;;;;4.33;2.67;;;;;-147.14;100.00;58812.66;4999069;28;46318;-60
2022/10/25 05:36:57;;;;;;;;;6.33;2.33;;;;;-147.14;100.00;58812.66;4994593;28;45551;-60
2022/10/25 05:39:23;;;;;;;;;3.00;2.00;;;;;-147.14;100.00;58812.66;4996286;28;45840;-60
2022/10/25 05:41:48;;;;;;;;;8.33;3.67;;;;;-147.14;100.00;58812.66;4997997;28;62805;-60
2022/10/25 05:44:15;;;;;;;;;7.67;3.00;;;;;-147.14;100.00;58812.66;4999536;28;46252;-60
2022/10/25 05:46:41;;;;;;;;;7.33;3.67;;;;;-147.14;100.00;58812.66;4998766;28;45272;-60
2022/10/25 05:49:06;;;;;;;;;2.67;2.00;;;;;-147.14;100.00;58812.66;4998701;28;45639;-60
2022/10/25 05:51:32;;;;;;;;;2.00;2.00;;;;;-147.14;100.00;58812.66;4997082;28;45270;-60
2022/10/25 05:53:59;;;;;;;;;6.00;3.67;;;;;-147.14;100.00;58812.66;4990892;28;46043;-60
2022/10/25 05:56:29;;;;;;;;;6.33;2.67;;;;;-147.14;100.00;58812.66;4997423;28;45549;-60
2022/10/25 05:58:56;;;;;;;;;5.00;2.67;;;;;-147.14;100.00;58812.66;4992449;28;45412;-60
2022/10/25 06:01:22;;;;;;;;;0.33;0.33;;;;;-147.14;100.00;58812.66;4997222;28;46022;-60
2022/10/25 06:03:52;;;;;;;;;3.00;3.00;;;;;-147.14;100.00;58812.66;4992327;28;47157;-60
2022/10/25 06:06:18;;;;;;;;;3.67;3.67;;;;;-147.14;100.00;58812.66;4998906;28;45510;-60
2022/10/25 06:08:44;;;;;;;;;4.00;3.00;;;;;-147.14;100.00;58812.66;4998544;28;45469;-60
2022/10/25 06:11:12;;;;;;;;;4.00;3.67;;;;;-147.14;100.00;58812.66;4991992;28;45533;-60
2022/10/25 06:13:38;;;;;;;;;3.67;3.67;;;;;-147.14;100.00;58812.66;4999105;28;45456;-60
2022/10/25 06:16:11;;;;;;;;;5.33;2.67;;;;;-147.14;100.00;58812.66;4994203;28;71060;-60
2022/10/25 06:18:37;;;;;;;;;7.00;5.00;;;;;-147.14;100.00;58812.66;4999333;28;45517;-60
2022/10/25 06:21:08;;;;;;;;;3.33;1.67;;;;;-147.14;100.00;58812.66;4992747;28;45924;-60
2022/10/25 06:23:37;;;;;;;;;4.33;4.00;;;;;-147.14;100.00;58812.66;4990382;28;46780;-60
2022/10/25 06:26:05;;;;;;;;;4.67;3.67;;;;;-147.14;100.00;58812.66;4994379;28;45440;-60
2022/10/25 06:28:30;;;;;;;;;3.00;3.00;;;;;-147.14;100.00;58812.66;4983750;28;45526;-60
2022/10/25 06:31:00;;;;;;;;;2.33;2.00;;;;;-147.14;100.00;58812.66;4990666;28;45425;-60
2022/10/25 06:33:26;;;;;;;;;5.00;4.00;;;;;-147.14;100.00;58812.66;4993776;28;45430;-60
2022/10/25 06:35:56;;;;;;;;;3.00;3.00;;;;;-147.14;100.00;58812.66;4996604;28;73024;-59
2022/10/25 06:38:21;;;;;;;;;4.67;3.00;;;;;-147.14;100.00;58812.66;4997894;28;45468;-60
2022/10/25 06:40:47;;;;;;;;;3.67;2.67;;;;;-147.14;100.00;58812.66;4998074;28;45427;-59
2022/10/25 06:43:12;;;;;;;;;5.00;3.33;;;;;-147.14;100.00;58812.66;4993748;28;46586;-60
2022/10/25 06:45:38;;;;;;;;;4.67;4.00;;;;;-147.14;100.00;58812.66;4993971;28;69051;-60
2022/10/25 06:48:03;;;;;;;;;6.67;2.67;;;;;-147.14;100.00;58812.66;4977845;28;68088;-60
2022/10/25 06:50:28;;;;;;;;;7.33;4.00;;;;;-147.14;100.00;58812.66;4978820;28;45269;-60
2022/10/25 06:52:54;;;;;;;;;6.67;5.33;;;;;-147.14;100.00;58812.66;4993341;28;71234;-59
2022/10/25 06:55:19;;;;;;;;;3.33;2.67;;;;;-147.14;100.00;58812.66;4992103;28;64686;-60
2022/10/25 06:57:44;;;;;;;;;3.33;3.33;;;;;-147.14;100.00;58812.66;4997717;28;45316;-60
2022/10/25 07:00:10;;;;;;;;;7.33;2.67;;;;;-147.14;100.00;58812.66;4986510;28;59338;-60
2022/10/25 07:02:36;;;;;;;;;3.00;3.00;;;;;-147.14;100.00;58812.66;4986474;28;45596;-60
2022/10/25 07:05:02;;;;;;;;;4.67;2.00;;;;;-147.14;100.00;58812.66;4986905;28;45266;-60
2022/10/25 07:07:27;;;;;;;;;4.67;3.00;;;;;-147.14;100.00;58812.66;4997327;28;45339;-60
2022/10/25 07:09:52;;;;;;;;;4.33;3.33;;;;;-147.14;100.00;58812.66;4993750;28;57823;-60
2022/10/25 07:12:18;;;;;;;;;5.67;4.00;;;;;-147.14;100.00;58812.66;4995616;28;45636;-60
2022/10/25 07:14:43;;;;;;;;;4.00;2.00;;;;;-147.14;100.00;58812.66;4994036;28;45465;-60
2022/10/25 07:17:09;;;;;;;;;5.67;4.00;;;;;-147.14;100.00;58812.66;4992306;28;45364;-60
2022/10/25 07:19:34;;;;;;;;;5.00;3.00;;;;;-147.14;100.00;58812.66;4996111;28;45403;-60
2022/10/25 07:21:59;;;;;;;;;4.33;2.00;;;;;-147.14;100.00;58812.66;4992297;28;69351;-60
2022/10/25 07:24:25;;;;;;;;;4.00;2.33;;;;;-147.14;100.00;58812.66;4992717;28;70610;-60
2022/10/25 07:26:50;;;;;;;;;4.33;3.67;;;;;-147.14;100.00;58812.66;4995079;28;45410;-60
2022/10/25 07:29:15;;;;;;;;;4.67;2.33;;;;;-147.14;100.00;58812.66;4992078;28;67890;-60
2022/10/25 07:31:44;;;;;;;;;6.00;0.67;;;;;-147.14;100.00;58812.66;4999884;28;46139;-60
2022/10/25 07:34:15;;;;;;;;;3.67;3.67;;;;;-147.14;100.00;58812.66;4994775;28;45422;-60
2022/10/25 07:36:40;;;;;;;;;4.00;2.33;;;;;-147.14;100.00;58812.66;4998115;28;45305;-60
2022/10/25 07:39:06;;;;;;;;;4.00;3.00;;;;;-147.14;100.00;58812.66;5000523;28;45437;-60
2022/10/25 07:41:31;;;;;;;;;7.33;3.67;;;;;-147.14;100.00;58812.66;4999121;28;46240;-60
2022/10/25 07:43:57;;;;;;;;;1.67;0.00;;;;;-147.14;100.00;58812.66;4999370;28;45636;-60
2022/10/25 07:46:22;;;;;;;;;1.67;1.33;;;;;-147.14;100.00;58812.66;4997565;28;45453;-60
2022/10/25 07:48:48;;;;;;;;;2.67;2.00;;;;;-147.14;100.00;58812.66;4976491;28;45623;-60
2022/10/25 07:51:15;;;;;;;;;3.00;3.00;;;;;-147.14;100.00;58812.66;4994178;28;46142;-60
2022/10/25 07:53:41;;;;;;;;;3.67;3.00;;;;;-147.14;100.00;58812.66;4995530;28;45568;-60
2022/10/25 07:56:11;;;;;;;;;2.00;2.00;;;;;-147.14;100.00;58812.66;4999406;28;45450;-60
2022/10/25 07:58:36;;;;;;;;;1.33;1.33;;;;;-147.14;100.00;58812.66;4999933;28;45531;-60
2022/10/25 08:01:04;;;;;;;;;6.00;2.00;;;;;-147.14;100.00;58812.66;4994692;28;70342;-60
2022/10/25 08:03:30;;;;;;;;;3.33;1.33;;;;;-147.14;100.00;58812.66;5015785;28;45583;-60
2022/10/25 08:05:55;;;;;;;;;2.33;2.33;;;;;-147.14;100.00;58812.66;4999192;28;45508;-60
2022/10/25 08:08:22;;;;;;;;;2.00;2.00;;;;;-147.14;100.00;58812.66;4997881;28;45321;-60
2022/10/25 08:10:48;;;;;;;;;3.00;2.67;;;;;-147.14;100.00;58812.66;4990477;28;46367;-59
2022/10/25 08:13:13;;;;;;;;;3.00;2.00;;;;;-147.14;100.00;58812.66;4980300;28;45498;-60
2022/10/25 08:15:39;;;;;;;;;2.00;2.00;;;;;-147.14;100.00;58812.66;4993961;28;45909;-60
2022/10/25 08:18:06;;;;;;;;;3.00;3.00;;;;;-147.14;100.00;58812.66;4991225;28;46572;-60
2022/10/25 08:20:32;;;;;;;;;7.00;3.00;;;;;-147.14;100.00;58812.66;4992886;28;45402;-60
2022/10/25 08:22:58;;;;;;;;;2.00;2.00;;;;;-147.14;100.00;58812.66;4995109;28;45574;-59
2022/10/25 08:25:25;;;;;;;;;2.00;2.00;;;;;-147.14;100.00;58812.66;4998108;28;45553;-59
2022/10/25 08:27:50;;;;;;;;;1.00;1.00;;;;;-147.14;100.00;58812.66;4996149;28;45511;-60
2022/10/25 08:30:15;;;;;;;;;8.33;2.33;;;;;-147.14;100.00;58812.66;4994028;28;46128;-61
2022/10/25 08:32:41;;;;;;;;;3.33;2.00;;;;;-147.14;100.00;58812.66;4995259;28;53906;-60
2022/10/25 08:35:06;;;;;;;;;4.67;3.67;;;;;-147.14;100.00;58812.66;4994060;28;61148;-60
2022/10/25 08:37:32;;;;;;;;;1.33;1.33;;;;;-147.14;100.00;58812.66;4998037;28;45670;-60
2022/10/25 08:39:57;;;;;;;;;2.00;2.00;;;;;-147.14;100.00;58812.66;4994253;28;69555;-61
2022/10/25 08:42:49;;;;;;;;;2.00;1.33;;;;;-147.14;100.00;58812.66;4995940;28;68213;-61
2022/10/25 08:45:43;;;;;;;;;1.33;1.33;;;;;-147.14;100.00;58812.66;4998201;28;45467;-60
2022/10/25 08:48:16;;;;;;;;;2.33;2.33;;;;;-147.14;100.00;58812.66;4998916;28;45682;-61
2022/10/25 08:50:44;;;;;;;;;1.00;1.00;;;;;-147.14;100.00;58812.66;4997555;28;46196;-61
2022/10/25 08:53:32;;;;;;;;;4.00;1.00;;;;;-147.14;100.00;58812.66;4996917;28;45726;-60
2022/10/25 08:55:57;;;;;;;;;0.75;0.75;;;;;-147.14;100.00;58812.66;4998739;28;45812;-60
2022/10/25 08:58:30;;;;;;;;;2.00;2.00;;;;;-147.14;100.00;58812.66;5000701;28;45322;-61
2022/10/25 09:00:59;;;;;;;;;4.67;2.00;;;;;-147.14;100.00;58812.66;4999370;28;46812;-61
2022/10/25 09:03:25;;;;;;;;;3.00;1.00;;;;;-147.14;100.00;58812.66;4990980;28;45612;-61
2022/10/25 09:06:01;;;;;;;;;2.33;2.33;;;;;-147.14;100.00;58812.66;4993081;28;45443;-61
2022/10/25 09:08:38;;;;;;;;;6.33;2.00;;;;;-147.14;100.00;58812.66;4995112;28;45589;-60
2022/10/25 09:11:20;;;;;;;;;2.25;2.00;;;;;-147.14;100.00;58812.66;4993457;28;46404;-61
2022/10/25 09:14:12;;;;;;;;;2.00;2.00;;;;;-147.14;100.00;58812.66;5008056;28;45406;-61
2022/10/25 09:17:03;;;;;;;;;2.67;2.67;;;;;-147.14;100.00;58812.66;4997907;28;45963;-60
2022/10/25 09:19:38;;;;;;;;;3.00;3.00;;;;;-147.14;100.00;58812.66;4998752;28;45817;-61
2022/10/25 09:22:25;;;;;;;;;6.33;2.00;;;;;-147.14;100.00;58812.66;4993418;28;46310;-61
2022/10/25 09:25:00;;;;;;;;;2.00;2.00;;;;;-147.14;100.00;58812.66;4992418;28;45293;-61
2022/10/25 09:27:33;;;;;;;;;1.00;1.00;;;;;-147.14;100.00;58812.66;4998178;28;45472;-61
2022/10/25 09:30:06;;;;;;;;;1.00;1.00;;;;;-147.14;100.00;58812.66;4997183;28;45904;-61
2022/10/25 09:32:35;;;;;;;;;2.00;0.25;;;;;-147.14;100.00;58812.66;4997053;28;45580;-61
2022/10/25 09:35:02;;;;;;;;;2.00;0.20;;;;;-147.14;100.00;58812.66;4996010;28;45519;-61
2022/10/25 09:37:48;;;;;;;;;1.00;1.00;;;;;-147.14;100.00;58812.66;4998083;28;45542;-61
2022/10/25 09:40:21;;;;;;;;;2.50;0.75;;;;;-147.14;100.00;58812.66;4993121;28;45549;-61
2022/10/25 09:42:55;;;;;;;;;3.50;1.00;;;;;-147.14;100.00;58812.66;4993789;28;45477;-61
2022/10/25 09:45:41;;;;;;;;;1.00;1.00;;;;;-147.14;100.00;58812.66;4994635;28;45581;-62
2022/10/25 09:48:23;;;;;;;;;0.25;0.25;;;;;-147.14;100.00;58812.66;4979632;28;45414;-62
2022/10/25 09:51:26;;;;;;;;;0.75;0.75;;;;;-147.14;100.00;58812.66;4992366;28;45412;-62
2022/10/25 09:53:52;;;;;;;;;2.00;0.25;;;;;-147.14;100.00;58812.66;4998549;28;46317;-62
2022/10/25 09:56:17;;;;;;;;;1.00;0.80;;;;;-147.14;100.00;58812.66;4997367;28;68976;-62
2022/10/25 09:58:45;;;;;;;;;1.75;1.00;;;;;-147.14;100.00;58812.66;4998253;28;46555;-62
2022/10/25 10:01:15;;;;;;;;;1.75;0.75;;;;;-147.14;100.00;58812.66;4992386;28;45526;-62
2022/10/25 10:03:40;;;;;;;;;1.25;0.00;;;;;-147.14;100.00;58812.66;4998513;28;45523;-62
2022/10/25 10:06:25;;;;;;;;;2.00;0.00;;;;;-147.14;100.00;58812.66;4998542;28;62720;-59
2022/10/25 10:08:59;;;;;;;;;2.00;0.75;;;;;-147.14;100.00;58812.66;4997009;28;45684;-61
2022/10/25 10:11:25;;;;;;;;;0.00;0.00;;;;;-147.14;100.00;58812.66;4998466;28;45575;-61
2022/10/25 10:13:57;;;;;;;;;0.00;0.00;;;;;-147.14;100.00;58812.66;4996200;28;75600;-61
2022/10/25 10:16:27;;;;;;;;;0.40;0.40;;;;;-147.14;100.00;58812.66;4998818;28;45642;-61
2022/10/25 10:19:13;;;;;;;;;2.00;0.40;;;;;-147.14;100.00;58812.66;4997704;28;45334;-61
2022/10/25 10:21:47;;;;;;;;;1.00;0.00;;;;;-147.14;100.00;58812.66;4998877;28;45357;-60
2022/10/25 10:24:20;;;;;;;;;1.00;0.00;;;;;-147.14;100.00;58812.66;4997856;28;45375;-61
2022/10/25 10:26:54;;;;;;;;;0.00;0.00;;;;;-147.14;100.00;58812.66;4997440;28;45417;-60
2022/10/25 10:29:22;;;;;;;;;0.25;0.25;;;;;-147.14;100.00;58812.66;4998149;28;45480;-61
2022/10/25 10:31:50;;;;;;;;;1.00;0.00;;;;;-147.14;100.00;58812.66;4997718;28;45404;-61
2022/10/25 10:34:35;;;;;;;;;0.00;0.00;;;;;-147.14;100.00;58812.66;4997198;28;46421;-61
2022/10/25 10:37:21;;;;;;;;;0.80;0.00;;;;;-147.14;100.00;58812.66;4991001;28;45637;-61
2022/10/25 10:39:53;;;;;;;;;0.00;0.00;;;;;-147.14;100.00;58812.66;4997303;28;45416;-61
2022/10/25 10:42:23;;;;;;;;;3.75;0.75;;;;;-147.14;100.00;58812.66;4998412;28;45870;-61
2022/10/25 10:45:18;;;;;;;;;0.00;0.00;;;;;-147.14;100.00;58812.66;4996632;28;45544;-61
2022/10/25 10:47:49;;;;;;;;;2.40;0.20;;;;;-147.14;100.00;58812.66;4995052;28;45576;-60
2022/10/25 10:50:20;;;;;;;;;0.00;0.00;;;;;-147.14;100.00;58812.66;4992019;28;45423;-61
2022/10/25 10:52:52;;;;;;;;;0.00;0.00;;;;;-147.14;100.00;58812.66;4987937;28;45437;-61
2022/10/25 10:55:38;;;;;;;;;0.00;0.00;;;;;-147.14;100.00;58812.66;4996395;28;45486;-61
2022/10/25 10:58:23;;;;;;;;;0.00;0.00;;;;;-147.14;100.00;58812.66;4977457;28;45652;-61
2022/10/25 11:00:53;;;;;;;;;0.25;0.25;;;;;-147.14;100.00;58812.66;4996035;28;45501;-61
2022/10/25 11:03:37;;;;;;;;;2.00;0.00;;;;;-147.14;100.00;58812.66;4997434;28;45511;-61
2022/10/25 11:06:14;;;;;;;;;0.00;0.00;;;;;-147.14;100.00;58812.66;4997464;28;45432;-61
2022/10/25 11:08:40;;;;;;;;;0.00;0.00;;;;;-147.14;100.00;58812.66;4997529;28;45427;-61
2022/10/25 11:11:12;;;;;;;;;3.00;0.00;;;;;-147.14;100.00;58812.66;4991907;28;45540;-61
2022/10/25 11:13:37;;;;;;;;;0.50;0.00;;;;;-147.14;100.00;58812.66;4996222;28;45668;-61
2022/10/25 11:16:24;;;;;;;;;0.75;0.25;;;;;-147.14;100.00;58812.66;4996433;28;46196;-60
2022/10/25 11:18:59;;;;;;;;;1.40;0.00;;;;;-147.14;100.00;58812.66;4991366;28;47013;-61
2022/10/25 11:21:28;;;;;;;;;0.00;0.00;;;;;-147.14;100.00;58812.66;4995632;28;45315;-60
2022/10/25 11:24:07;;;;;;;;;0.00;0.00;;;;;-147.14;100.00;58812.66;4997958;28;45211;-61
2022/10/25 11:26:49;;;;;;;;;1.75;0.00;;;;;-147.14;100.00;58812.66;4994994;28;46297;-61
2022/10/25 11:29:44;;;;;;;;;0.00;0.00;;;;;-147.14;100.00;58812.66;4988894;28;45280;-60
2022/10/25 11:32:15;;;;;;;;;0.00;0.00;;;;;-147.14;100.00;58812.66;4989721;28;45345;-60
2022/10/25 11:35:02;;;;;;;;;1.00;0.00;;;;;-147.14;100.00;58812.66;4994668;28;45367;-60
2022/10/25 11:38:06;;;;;;;;;0.75;0.75;;;;;-147.14;100.00;58812.66;4994680;28;45348;-60
2022/10/25 11:40:38;;;;;;;;;0.20;0.20;;;;;-147.14;100.00;58812.66;4944542;28;45603;-60
2022/10/25 11:43:25;;;;;;;;;0.00;0.00;;;;;-147.14;100.00;58812.66;4996637;28;45945;-60
2022/10/25 11:46:01;;;;;;;;;0.50;0.50;;;;;-147.14;100.00;58812.66;4996735;28;45435;-60
2022/10/25 11:49:05;;;;;;;;;1.25;1.00;;;;;-147.14;100.00;58812.66;5007434;28;46355;-60
2022/10/25 11:51:51;;;;;;;;;2.00;2.00;;;;;-147.14;100.00;58812.66;4963252;28;45518;-60
2022/10/25 11:54:32;;;;;;;;;2.00;0.00;;;;;-147.14;100.00;58812.66;4996644;28;45554;-60
2022/10/25 11:57:01;;;;;;;;;4.00;3.00;;;;;-147.14;100.00;58812.66;4987376;28;45442;-61
2022/10/25 11:59:32;;;;;;;;;2.25;2.25;;;;;-147.14;100.00;58812.66;4994925;28;45482;-61
2022/10/25 12:02:35;;;;;;;;;1.25;1.25;;;;;-147.14;100.00;58812.66;4996706;28;45449;-61
2022/10/25 12:05:12;;;;;;;;;2.00;0.00;;;;;-147.14;100.00;58812.66;4997451;28;45368;-61
2022/10/25 12:07:44;;;;;;;;;2.00;2.00;;;;;-147.14;100.00;58812.66;4998072;28;45435;-60
2022/10/25 12:10:15;;;;;;;;;3.00;3.00;;;;;-147.14;100.00;58812.66;4996231;28;45416;-60
2022/10/25 12:13:01;;;;;;;;;4.75;3.00;;;;;-147.14;100.00;58812.66;4997345;28;45394;-61
2022/10/25 12:15:40;;;;;;;;;2.00;1.25;;;;;-147.14;100.00;58812.66;4997216;28;45250;-61
2022/10/25 12:18:13;;;;;;;;;1.25;1.25;;;;;-147.14;100.00;58812.66;4997974;28;45954;-61
2022/10/25 12:20:38;;;;;;;;;3.00;1.50;;;;;-147.14;100.00;58812.66;4978647;28;45668;-61
2022/10/25 12:23:09;;;;;;;;;3.00;1.00;;;;;-147.14;100.00;58812.66;4989723;28;66910;-61
2022/10/25 12:25:44;;;;;;;;;1.75;1.75;;;;;-147.14;100.00;58812.66;4999147;28;45364;-61
2022/10/25 12:28:22;;;;;;;;;3.25;3.25;;;;;-147.14;100.00;58812.66;4998730;28;45446;-61
2022/10/25 12:30:52;;;;;;;;;4.00;3.50;;;;;-147.14;100.00;58812.66;4998408;28;46140;-60
2022/10/25 12:33:49;;;;;;;;;2.00;2.00;;;;;-147.14;100.00;58812.66;5002493;28;45445;-60
2022/10/25 12:36:26;;;;;;;;;1.25;1.25;;;;;-147.14;100.00;58812.66;4999575;28;45448;-60
2022/10/25 12:38:51;;;;;;;;;2.00;2.00;;;;;-147.14;100.00;58812.66;4998638;28;45525;-60
2022/10/25 12:41:21;;;;;;;;;2.75;2.75;;;;;-147.14;100.00;58812.66;4999490;28;74936;-60
2022/10/25 12:44:02;;;;;;;;;5.50;4.00;;;;;-147.14;100.00;58812.66;4991551;28;45766;-61
2022/10/25 12:46:52;;;;;;;;;1.25;1.25;;;;;-147.14;100.00;58812.66;4997837;28;45500;-61
2022/10/25 12:49:32;;;;;;;;;4.25;3.25;;;;;-147.14;100.00;58812.66;4986836;28;45303;-61
2022/10/25 12:52:24;;;;;;;;;3.75;3.00;;;;;-147.14;100.00;58812.66;4990140;28;46269;-60
2022/10/25 12:54:55;;;;;;;;;5.00;4.00;;;;;-147.14;100.00;58812.66;5008659;28;45701;-60
2022/10/25 12:57:35;;;;;;;;;3.00;2.75;;;;;-147.14;100.00;58812.66;4985379;28;45503;-60
2022/10/25 13:00:03;;;;;;;;;2.75;2.50;;;;;-147.14;100.00;58812.66;4985714;28;46929;-61
2022/10/25 13:02:43;;;;;;;;;3.00;3.00;;;;;-147.14;100.00;58812.66;4988089;28;46229;-61
2022/10/25 13:05:27;;;;;;;;;2.00;2.00;;;;;-147.14;100.00;58812.66;5000165;28;45533;-60
2022/10/25 13:07:58;;;;;;;;;5.50;5.00;;;;;-147.14;100.00;58812.66;4982190;28;45440;-61
2022/10/25 13:10:24;;;;;;;;;2.00;2.00;;;;;-147.14;100.00;58812.66;4984664;28;45775;-61
2022/10/25 13:13:15;;;;;;;;;5.75;1.50;;;;;-147.14;100.00;58812.66;4990025;28;57026;-61
2022/10/25 13:15:47;;;;;;;;;2.75;1.50;;;;;-147.14;100.00;58812.66;4996974;28;45431;-60
2022/10/25 13:18:33;;;;;;;;;3.00;3.00;;;;;-147.14;100.00;58812.66;4987043;28;45575;-61
2022/10/25 13:21:00;;;;;;;;;5.50;2.00;;;;;-147.14;100.00;58812.66;4978773;28;45615;-61
2022/10/25 13:23:41;;;;;;;;;4.25;2.75;;;;;-147.14;100.00;58812.66;4981768;28;46410;-61
2022/10/25 13:26:17;;;;;;;;;3.50;2.00;;;;;-147.14;100.00;58812.66;4980692;28;45453;-61
2022/10/25 13:28:50;;;;;;;;;7.25;2.00;;;;;-147.14;100.00;58812.66;4987510;28;45385;-61
2022/10/25 13:31:34;;;;;;;;;4.00;2.00;;;;;-147.14;100.00;58812.66;4996672;28;45721;-60
2022/10/25 13:34:11;;;;;;;;;5.25;3.00;;;;;-147.14;100.00;58812.66;4999465;28;45424;-61
2022/10/25 13:36:50;;;;;;;;;4.25;3.00;;;;;-147.14;100.00;58812.66;4997735;28;45975;-61
2022/10/25 13:39:21;;;;;;;;;4.50;4.00;;;;;-147.14;100.00;58812.66;4989504;28;45493;-61
2022/10/25 13:41:46;;;;;;;;;2.25;1.25;;;;;-147.14;100.00;58812.66;4991955;28;45392;-61
2022/10/25 13:44:24;;;;;;;;;2.50;2.25;;;;;-147.14;100.00;58812.66;4999423;28;74028;-61
2022/10/25 13:46:50;;;;;;;;;3.00;2.25;;;;;-147.14;100.00;58812.66;4995673;28;46420;-61
2022/10/25 13:49:32;;;;;;;;;3.00;3.00;;;;;-147.14;100.00;58812.66;5014698;28;45893;-61
2022/10/25 13:52:00;;;;;;;;;2.50;2.50;;;;;-147.14;100.00;58812.66;4992956;28;45449;-61
2022/10/25 13:54:41;;;;;;;;;2.50;2.00;;;;;-147.14;100.00;58812.66;4995224;28;46401;-61
2022/10/25 13:57:45;;;;;;;;;4.25;3.00;;;;;-147.14;100.00;58812.66;5005150;28;45472;-61
2022/10/25 14:00:22;;;;;;;;;5.00;4.75;;;;;-147.14;100.00;58812.66;4990048;28;45585;-60
2022/10/25 14:03:08;;;;;;;;;5.75;4.00;;;;;-147.14;100.00;58812.66;4997325;28;45454;-60
2022/10/25 14:05:55;;;;;;;;;5.50;2.00;;;;;-147.14;100.00;58812.66;4999234;28;45500;-60
2022/10/25 14:08:24;;;;;;;;;3.50;3.50;;;;;-147.14;100.00;58812.66;4994239;28;45441;-60
2022/10/25 14:10:49;;;;;;;;;5.25;4.00;;;;;-147.14;100.00;58812.66;4997800;28;45243;-61
2022/10/25 14:13:32;;;;;;;;;3.75;3.00;;;;;-147.14;100.00;58812.66;4997661;28;50644;-61
2022/10/25 14:16:01;;;;;;;;;5.00;3.25;;;;;-147.14;100.00;58812.66;4993206;28;45406;-61
2022/10/25 14:18:27;;;;;;;;;3.75;3.75;;;;;-147.14;100.00;58812.66;5001505;28;45526;-61
2022/10/25 14:20:57;;;;;;;;;3.00;3.00;;;;;-147.14;100.00;58812.66;4997700;28;53747;-61
2022/10/25 14:23:26;;;;;;;;;3.50;3.00;;;;;-147.14;100.00;58812.66;5001430;28;45633;-60
2022/10/25 14:25:57;;;;;;;;;5.50;3.25;;;;;-147.14;100.00;58812.66;4997959;28;46116;-60
2022/10/25 14:28:31;;;;;;;;;4.00;2.75;;;;;-147.14;100.00;58812.66;4981890;28;45447;-60
2022/10/25 14:31:00;;;;;;;;;4.75;2.75;;;;;-147.14;100.00;58812.66;4999946;28;45408;-61
2022/10/25 14:33:27;;;;;;;;;1.50;1.25;;;;;-147.14;100.00;58812.66;4999480;28;45373;-61
2022/10/25 14:36:06;;;;;;;;;2.50;2.50;;;;;-147.14;100.00;58812.66;4993697;28;45533;-60
2022/10/25 14:38:36;;;;;;;;;5.00;2.00;;;;;-147.14;100.00;58812.66;4998529;28;45830;-62
2022/10/25 14:41:03;;;;;;;;;2.50;2.50;;;;;-147.14;100.00;58812.66;4996222;28;45804;-60
2022/10/25 14:43:34;;;;;;;;;4.00;2.00;;;;;-147.14;100.00;58812.66;4993775;28;45630;-61
2022/10/25 14:46:05;;;;;;;;;3.75;2.00;;;;;-147.14;100.00;58812.66;4992732;28;46959;-60
2022/10/25 14:48:31;;;;;;;;;3.25;3.25;;;;;-147.14;100.00;58812.66;4992195;28;45457;-61
2022/10/25 14:50:59;;;;;;;;;3.25;3.00;;;;;-147.14;100.00;58812.66;4998140;28;45297;-60
2022/10/25 14:53:25;;;;;;;;;5.25;3.75;;;;;-147.14;100.00;58812.66;4990597;28;45682;-61
2022/10/25 14:55:57;;;;;;;;;8.00;5.00;;;;;-147.14;100.00;58812.66;5001701;28;46268;-61
2022/10/25 14:58:23;;;;;;;;;4.75;3.00;;;;;-147.14;100.00;58812.66;4991446;28;45449;-60
2022/10/25 15:00:59;;;;;;;;;6.00;2.75;;;;;-147.14;100.00;58812.66;4997608;28;45360;-60
2022/10/25 15:03:28;;;;;;;;;4.25;3.00;;;;;-147.14;100.00;58812.66;4997479;28;45581;-61
2022/10/25 15:05:56;;;;;;;;;3.00;2.25;;;;;-147.14;100.00;58812.66;4998959;28;46235;-61
2022/10/25 15:08:23;;;;;;;;;5.75;4.00;;;;;-147.14;100.00;58812.66;4991884;28;45488;-61
2022/10/25 15:10:52;;;;;;;;;4.00;2.00;;;;;-147.14;100.00;58812.66;5000116;28;45366;-61
2022/10/25 15:13:39;;;;;;;;;4.75;3.75;;;;;-147.14;100.00;58812.66;4991072;28;45442;-61
2022/10/25 15:16:29;;;;;;;;;7.00;2.50;;;;;-147.14;100.00;58812.66;4995762;28;46118;-61
2022/10/25 15:19:07;;;;;;;;;6.00;4.00;;;;;-147.14;100.00;58812.66;4999416;28;45356;-61
2022/10/25 15:21:50;;;;;;;;;2.00;2.00;;;;;-147.14;100.00;58812.66;4998300;28;45753;-61
2022/10/25 15:24:17;;;;;;;;;3.75;2.75;;;;;-147.14;100.00;58812.66;4998811;28;45394;-61
2022/10/25 15:27:00;;;;;;;;;2.75;2.00;;;;;-147.14;100.00;58812.66;4994733;28;46394;-61
2022/10/25 15:29:42;;;;;;;;;1.75;1.75;;;;;-147.14;100.00;58812.66;4997235;28;45359;-61
2022/10/25 15:32:18;;;;;;;;;4.00;3.00;;;;;-147.14;100.00;58812.66;4977180;28;45642;-61
2022/10/25 15:34:47;;;;;;;;;2.50;2.00;;;;;-147.14;100.00;58812.66;4994137;28;45688;-61
2022/10/25 15:37:14;;;;;;;;;4.00;2.25;;;;;-147.14;100.00;58812.66;4998272;28;46267;-61
2022/10/25 15:39:39;;;;;;;;;5.00;5.00;;;;;-147.14;100.00;58812.66;4997867;28;45419;-61
2022/10/25 15:42:05;;;;;;;;;2.00;2.00;;;;;-147.14;100.00;58812.66;4998222;28;45457;-61
2022/10/25 15:44:30;;;;;;;;;7.33;4.00;;;;;-147.14;100.00;58812.66;4994329;28;69507;-61
2022/10/25 15:46:55;;;;;;;;;4.50;2.25;;;;;-147.14;100.00;58812.66;4991561;28;69032;-61
2022/10/25 15:49:21;;;;;;;;;3.25;2.50;;;;;-147.14;100.00;58812.66;4991061;28;73315;-62
2022/10/25 15:51:46;;;;;;;;;3.75;3.00;;;;;-147.14;100.00;58812.66;4985639;28;69319;-62
2022/10/25 15:54:17;;;;;;;;;4.00;3.00;;;;;-147.14;100.00;58812.66;4995472;28;45742;-62
2022/10/25 15:56:43;;;;;;;;;4.00;4.00;;;;;-147.14;100.00;58812.66;4981805;28;46166;-62
2022/10/25 15:59:09;;;;;;;;;4.75;4.75;;;;;-147.14;100.00;58812.66;4998004;28;45403;-62
2022/10/25 16:01:36;;;;;;;;;4.50;4.00;;;;;-147.14;100.00;58812.66;4991169;28;45451;-62